sensor_id;sensor_type;location;lat;lon;timestamp;temperature;humidity
23377;DHT22;14353;46.070;13.222;2023-07-02T00:00:30;28.10;52.60
23377;DHT22;14353;46.070;13.222;2023-07-02T00:02:56;28.10;52.60
23377;DHT22;14353;46.070;13.222;2023-07-02T00:05:21;28.10;52.60
23377;DHT22;14353;46.070;13.222;2023-07-02T00:07:47;28.10;52.60
23377;DHT22;14353;46.070;13.222;2023-07-02T00:10:13;28.10;53.30
23377;DHT22;14353;46.070;13.222;2023-07-02T00:12:38;28.10;52.60
23377;DHT22;14353;46.070;13.222;2023-07-02T00:15:04;28.10;52.60
23377;DHT22;14353;46.070;13.222;2023-07-02T00:17:30;28.10;52.60
23377;DHT22;14353;46.070;13.222;2023-07-02T00:19:56;28.10;52.60
23377;DHT22;14353;46.070;13.222;2023-07-02T00:22:22;28.10;52.60
23377;DHT22;14353;46.070;13.222;2023-07-02T00:24:48;28.10;52.70
23377;DHT22;14353;46.070;13.222;2023-07-02T00:27:13;28.10;52.60
23377;DHT22;14353;46.070;13.222;2023-07-02T00:29:39;28.10;52.70
23377;DHT22;14353;46.070;13.222;2023-07-02T00:32:05;28.10;52.70
23377;DHT22;14353;46.070;13.222;2023-07-02T00:34:31;28.10;52.70
23377;DHT22;14353;46.070;13.222;2023-07-02T00:36:57;28.10;52.60
23377;DHT22;14353;46.070;13.222;2023-07-02T00:39:22;28.10;52.70
23377;DHT22;14353;46.070;13.222;2023-07-02T00:41:48;28.10;52.70
23377;DHT22;14353;46.070;13.222;2023-07-02T00:44:14;28.10;52.70
23377;DHT22;14353;46.070;13.222;2023-07-02T00:46:40;28.10;52.60
23377;DHT22;14353;46.070;13.222;2023-07-02T00:49:06;28.10;52.70
23377;DHT22;14353;46.070;13.222;2023-07-02T00:51:33;28.10;52.70
23377;DHT22;14353;46.070;13.222;2023-07-02T00:53:59;28.10;52.70
23377;DHT22;14353;46.070;13.222;2023-07-02T00:56:26;28.10;52.70
23377;DHT22;14353;46.070;13.222;2023-07-02T00:58:54;28.10;52.70
23377;DHT22;14353;46.070;13.222;2023-07-02T01:01:21;28.10;52.70
23377;DHT22;14353;46.070;13.222;2023-07-02T01:04:01;28.10;52.70
23377;DHT22;14353;46.070;13.222;2023-07-02T01:06:29;28.10;52.70
23377;DHT22;14353;46.070;13.222;2023-07-02T01:08:58;28.10;52.70
23377;DHT22;14353;46.070;13.222;2023-07-02T01:11:30;28.10;52.70
23377;DHT22;14353;46.070;13.222;2023-07-02T01:14:04;28.10;52.70
23377;DHT22;14353;46.070;13.222;2023-07-02T01:16:31;28.10;52.70
23377;DHT22;14353;46.070;13.222;2023-07-02T01:19:00;28.10;52.70
23377;DHT22;14353;46.070;13.222;2023-07-02T01:21:29;28.10;52.70
23377;DHT22;14353;46.070;13.222;2023-07-02T01:23:54;28.10;52.70
23377;DHT22;14353;46.070;13.222;2023-07-02T01:26:20;28.10;52.70
23377;DHT22;14353;46.070;13.222;2023-07-02T01:28:46;28.10;52.70
23377;DHT22;14353;46.070;13.222;2023-07-02T01:31:12;28.10;52.70
23377;DHT22;14353;46.070;13.222;2023-07-02T01:33:38;28.10;52.70
23377;DHT22;14353;46.070;13.222;2023-07-02T01:36:04;28.10;52.70
23377;DHT22;14353;46.070;13.222;2023-07-02T01:38:29;28.10;52.70
23377;DHT22;14353;46.070;13.222;2023-07-02T01:40:55;28.10;52.70
23377;DHT22;14353;46.070;13.222;2023-07-02T01:43:21;28.10;52.70
23377;DHT22;14353;46.070;13.222;2023-07-02T01:45:46;28.00;52.70
23377;DHT22;14353;46.070;13.222;2023-07-02T01:48:12;28.10;52.70
23377;DHT22;14353;46.070;13.222;2023-07-02T01:50:38;28.00;52.70
23377;DHT22;14353;46.070;13.222;2023-07-02T01:53:04;28.00;52.70
23377;DHT22;14353;46.070;13.222;2023-07-02T01:55:29;28.00;52.70
23377;DHT22;14353;46.070;13.222;2023-07-02T01:57:55;28.00;52.70
23377;DHT22;14353;46.070;13.222;2023-07-02T02:00:21;28.00;52.70
23377;DHT22;14353;46.070;13.222;2023-07-02T02:02:46;28.00;52.70
23377;DHT22;14353;46.070;13.222;2023-07-02T02:05:12;28.00;52.70
23377;DHT22;14353;46.070;13.222;2023-07-02T02:07:38;28.00;52.70
23377;DHT22;14353;46.070;13.222;2023-07-02T02:10:04;28.00;52.70
23377;DHT22;14353;46.070;13.222;2023-07-02T02:12:30;28.00;52.70
23377;DHT22;14353;46.070;13.222;2023-07-02T02:14:55;28.00;52.70
23377;DHT22;14353;46.070;13.222;2023-07-02T02:17:21;28.00;52.70
23377;DHT22;14353;46.070;13.222;2023-07-02T02:19:49;28.00;52.70
23377;DHT22;14353;46.070;13.222;2023-07-02T02:22:15;28.00;52.70
23377;DHT22;14353;46.070;13.222;2023-07-02T02:24:42;28.00;52.70
23377;DHT22;14353;46.070;13.222;2023-07-02T02:27:07;28.00;52.70
23377;DHT22;14353;46.070;13.222;2023-07-02T02:29:34;28.00;52.70
23377;DHT22;14353;46.070;13.222;2023-07-02T02:32:00;28.00;52.70
23377;DHT22;14353;46.070;13.222;2023-07-02T02:34:26;28.00;52.70
23377;DHT22;14353;46.070;13.222;2023-07-02T02:36:51;28.00;52.70
23377;DHT22;14353;46.070;13.222;2023-07-02T02:39:17;28.00;52.70
23377;DHT22;14353;46.070;13.222;2023-07-02T02:41:43;28.00;52.70
23377;DHT22;14353;46.070;13.222;2023-07-02T02:44:08;28.00;52.70
23377;DHT22;14353;46.070;13.222;2023-07-02T02:46:34;28.00;52.70
23377;DHT22;14353;46.070;13.222;2023-07-02T02:49:00;28.00;52.70
23377;DHT22;14353;46.070;13.222;2023-07-02T02:51:25;28.00;52.70
23377;DHT22;14353;46.070;13.222;2023-07-02T02:53:51;28.00;52.70
23377;DHT22;14353;46.070;13.222;2023-07-02T02:56:17;28.00;52.70
23377;DHT22;14353;46.070;13.222;2023-07-02T02:58:44;28.00;52.70
23377;DHT22;14353;46.070;13.222;2023-07-02T03:01:09;28.00;52.70
23377;DHT22;14353;46.070;13.222;2023-07-02T03:03:41;28.00;52.70
23377;DHT22;14353;46.070;13.222;2023-07-02T03:06:11;28.00;52.70
23377;DHT22;14353;46.070;13.222;2023-07-02T03:08:37;28.00;52.70
23377;DHT22;14353;46.070;13.222;2023-07-02T03:11:03;28.00;52.70
23377;DHT22;14353;46.070;13.222;2023-07-02T03:13:28;28.00;52.70
23377;DHT22;14353;46.070;13.222;2023-07-02T03:15:54;28.00;52.70
23377;DHT22;14353;46.070;13.222;2023-07-02T03:18:20;28.00;52.70
23377;DHT22;14353;46.070;13.222;2023-07-02T03:20:45;28.00;52.70
23377;DHT22;14353;46.070;13.222;2023-07-02T03:23:11;28.00;53.30
23377;DHT22;14353;46.070;13.222;2023-07-02T03:25:37;28.00;52.70
23377;DHT22;14353;46.070;13.222;2023-07-02T03:28:02;28.00;52.60
23377;DHT22;14353;46.070;13.222;2023-07-02T03:30:28;28.00;52.60
23377;DHT22;14353;46.070;13.222;2023-07-02T03:32:55;28.00;52.70
23377;DHT22;14353;46.070;13.222;2023-07-02T03:35:20;27.90;52.60
23377;DHT22;14353;46.070;13.222;2023-07-02T03:37:46;28.00;52.60
23377;DHT22;14353;46.070;13.222;2023-07-02T03:40:12;28.00;52.60
23377;DHT22;14353;46.070;13.222;2023-07-02T03:42:37;28.00;52.60
23377;DHT22;14353;46.070;13.222;2023-07-02T03:45:03;28.00;52.60
23377;DHT22;14353;46.070;13.222;2023-07-02T03:47:29;28.00;52.60
23377;DHT22;14353;46.070;13.222;2023-07-02T03:49:55;28.00;52.60
23377;DHT22;14353;46.070;13.222;2023-07-02T03:52:20;28.00;52.60
23377;DHT22;14353;46.070;13.222;2023-07-02T03:54:46;28.00;52.60
23377;DHT22;14353;46.070;13.222;2023-07-02T03:57:12;28.00;52.60
23377;DHT22;14353;46.070;13.222;2023-07-02T03:59:38;28.00;52.50
23377;DHT22;14353;46.070;13.222;2023-07-02T04:02:04;28.00;52.60
23377;DHT22;14353;46.070;13.222;2023-07-02T04:04:29;28.00;52.60
23377;DHT22;14353;46.070;13.222;2023-07-02T04:06:55;28.00;52.50
23377;DHT22;14353;46.070;13.222;2023-07-02T04:09:21;28.00;52.50
23377;DHT22;14353;46.070;13.222;2023-07-02T04:11:46;28.00;52.50
23377;DHT22;14353;46.070;13.222;2023-07-02T04:14:12;28.00;52.50
23377;DHT22;14353;46.070;13.222;2023-07-02T04:16:38;28.00;52.50
23377;DHT22;14353;46.070;13.222;2023-07-02T04:19:04;28.00;52.50
23377;DHT22;14353;46.070;13.222;2023-07-02T04:21:29;28.00;52.50
23377;DHT22;14353;46.070;13.222;2023-07-02T04:23:55;28.00;52.40
23377;DHT22;14353;46.070;13.222;2023-07-02T04:26:21;28.00;52.40
23377;DHT22;14353;46.070;13.222;2023-07-02T04:28:47;28.00;52.40
23377;DHT22;14353;46.070;13.222;2023-07-02T04:31:12;28.00;52.40
23377;DHT22;14353;46.070;13.222;2023-07-02T04:33:39;28.00;52.40
23377;DHT22;14353;46.070;13.222;2023-07-02T04:36:05;28.00;52.40
23377;DHT22;14353;46.070;13.222;2023-07-02T04:38:31;28.00;52.30
23377;DHT22;14353;46.070;13.222;2023-07-02T04:40:56;28.00;52.30
23377;DHT22;14353;46.070;13.222;2023-07-02T04:43:31;28.00;52.30
23377;DHT22;14353;46.070;13.222;2023-07-02T04:45:57;28.00;52.30
23377;DHT22;14353;46.070;13.222;2023-07-02T04:48:23;28.00;52.30
23377;DHT22;14353;46.070;13.222;2023-07-02T04:50:49;28.00;52.30
23377;DHT22;14353;46.070;13.222;2023-07-02T04:53:14;28.00;52.20
23377;DHT22;14353;46.070;13.222;2023-07-02T04:55:41;28.00;52.20
23377;DHT22;14353;46.070;13.222;2023-07-02T04:58:07;28.00;52.20
23377;DHT22;14353;46.070;13.222;2023-07-02T05:00:33;28.00;52.20
23377;DHT22;14353;46.070;13.222;2023-07-02T05:02:58;28.10;52.30
23377;DHT22;14353;46.070;13.222;2023-07-02T05:05:24;28.00;52.20
23377;DHT22;14353;46.070;13.222;2023-07-02T05:07:50;28.00;52.10
23377;DHT22;14353;46.070;13.222;2023-07-02T05:10:15;28.00;52.80
23377;DHT22;14353;46.070;13.222;2023-07-02T05:12:41;28.00;52.10
23377;DHT22;14353;46.070;13.222;2023-07-02T05:15:07;28.00;52.10
23377;DHT22;14353;46.070;13.222;2023-07-02T05:17:33;28.00;52.10
23377;DHT22;14353;46.070;13.222;2023-07-02T05:20:01;28.00;52.10
23377;DHT22;14353;46.070;13.222;2023-07-02T05:22:27;28.10;52.20
23377;DHT22;14353;46.070;13.222;2023-07-02T05:24:53;28.10;52.20
23377;DHT22;14353;46.070;13.222;2023-07-02T05:27:18;28.10;52.20
23377;DHT22;14353;46.070;13.222;2023-07-02T05:29:44;28.10;52.20
23377;DHT22;14353;46.070;13.222;2023-07-02T05:32:10;28.10;52.20
23377;DHT22;14353;46.070;13.222;2023-07-02T05:34:36;28.10;52.20
23377;DHT22;14353;46.070;13.222;2023-07-02T05:37:02;28.10;52.10
23377;DHT22;14353;46.070;13.222;2023-07-02T05:39:27;28.10;52.10
23377;DHT22;14353;46.070;13.222;2023-07-02T05:41:53;28.10;52.10
23377;DHT22;14353;46.070;13.222;2023-07-02T05:44:19;28.10;52.10
23377;DHT22;14353;46.070;13.222;2023-07-02T05:46:45;28.10;52.00
23377;DHT22;14353;46.070;13.222;2023-07-02T05:49:10;28.10;52.00
23377;DHT22;14353;46.070;13.222;2023-07-02T05:51:36;28.10;52.00
23377;DHT22;14353;46.070;13.222;2023-07-02T05:54:02;28.10;51.90
23377;DHT22;14353;46.070;13.222;2023-07-02T05:56:27;28.10;51.90
23377;DHT22;14353;46.070;13.222;2023-07-02T05:58:53;28.10;51.90
23377;DHT22;14353;46.070;13.222;2023-07-02T06:01:19;28.10;51.90
23377;DHT22;14353;46.070;13.222;2023-07-02T06:03:44;28.10;51.80
23377;DHT22;14353;46.070;13.222;2023-07-02T06:06:11;28.10;51.80
23377;DHT22;14353;46.070;13.222;2023-07-02T06:08:37;28.20;51.90
23377;DHT22;14353;46.070;13.222;2023-07-02T06:11:03;28.20;51.90
23377;DHT22;14353;46.070;13.222;2023-07-02T06:13:28;28.20;51.80
23377;DHT22;14353;46.070;13.222;2023-07-02T06:15:54;28.20;51.80
23377;DHT22;14353;46.070;13.222;2023-07-02T06:18:20;28.20;51.80
23377;DHT22;14353;46.070;13.222;2023-07-02T06:20:46;28.20;51.70
23377;DHT22;14353;46.070;13.222;2023-07-02T06:23:12;28.20;51.70
23377;DHT22;14353;46.070;13.222;2023-07-02T06:25:37;28.20;51.60
23377;DHT22;14353;46.070;13.222;2023-07-02T06:28:03;28.20;51.60
23377;DHT22;14353;46.070;13.222;2023-07-02T06:30:29;28.30;51.70
23377;DHT22;14353;46.070;13.222;2023-07-02T06:32:55;28.20;51.60
23377;DHT22;14353;46.070;13.222;2023-07-02T06:35:21;28.30;51.60
23377;DHT22;14353;46.070;13.222;2023-07-02T06:37:47;28.30;51.70
23377;DHT22;14353;46.070;13.222;2023-07-02T06:40:12;28.30;51.60
23377;DHT22;14353;46.070;13.222;2023-07-02T06:42:38;28.30;51.60
23377;DHT22;14353;46.070;13.222;2023-07-02T06:45:05;28.30;51.50
23377;DHT22;14353;46.070;13.222;2023-07-02T06:47:31;28.30;51.50
23377;DHT22;14353;46.070;13.222;2023-07-02T06:49:56;28.30;51.50
23377;DHT22;14353;46.070;13.222;2023-07-02T06:52:22;28.30;51.40
23377;DHT22;14353;46.070;13.222;2023-07-02T06:54:48;28.30;51.40
23377;DHT22;14353;46.070;13.222;2023-07-02T06:57:13;28.30;51.40
23377;DHT22;14353;46.070;13.222;2023-07-02T06:59:39;28.30;51.40
23377;DHT22;14353;46.070;13.222;2023-07-02T07:02:06;28.40;51.40
23377;DHT22;14353;46.070;13.222;2023-07-02T07:04:32;28.30;51.30
23377;DHT22;14353;46.070;13.222;2023-07-02T07:07:00;28.40;51.30
23377;DHT22;14353;46.070;13.222;2023-07-02T07:09:28;28.40;51.30
23377;DHT22;14353;46.070;13.222;2023-07-02T07:11:54;28.40;51.20
23377;DHT22;14353;46.070;13.222;2023-07-02T07:14:20;28.40;51.20
23377;DHT22;14353;46.070;13.222;2023-07-02T07:16:45;28.40;51.20
23377;DHT22;14353;46.070;13.222;2023-07-02T07:19:11;28.40;51.20
23377;DHT22;14353;46.070;13.222;2023-07-02T07:21:37;28.40;51.20
23377;DHT22;14353;46.070;13.222;2023-07-02T07:24:02;28.40;51.20
23377;DHT22;14353;46.070;13.222;2023-07-02T07:26:28;28.40;51.10
23377;DHT22;14353;46.070;13.222;2023-07-02T07:28:54;28.40;51.10
23377;DHT22;14353;46.070;13.222;2023-07-02T07:31:21;28.40;51.80
23377;DHT22;14353;46.070;13.222;2023-07-02T07:33:47;28.40;51.10
23377;DHT22;14353;46.070;13.222;2023-07-02T07:36:13;28.40;51.10
23377;DHT22;14353;46.070;13.222;2023-07-02T07:38:39;28.40;51.00
23377;DHT22;14353;46.070;13.222;2023-07-02T07:41:05;28.40;51.00
23377;DHT22;14353;46.070;13.222;2023-07-02T07:43:30;28.40;51.00
23377;DHT22;14353;46.070;13.222;2023-07-02T07:45:56;28.40;51.00
23377;DHT22;14353;46.070;13.222;2023-07-02T07:48:22;28.40;51.00
23377;DHT22;14353;46.070;13.222;2023-07-02T07:50:47;28.50;51.10
23377;DHT22;14353;46.070;13.222;2023-07-02T07:53:14;28.40;51.60
23377;DHT22;14353;46.070;13.222;2023-07-02T07:55:39;28.40;50.90
23377;DHT22;14353;46.070;13.222;2023-07-02T07:58:05;28.50;51.10
23377;DHT22;14353;46.070;13.222;2023-07-02T08:00:31;28.40;50.90
23377;DHT22;14353;46.070;13.222;2023-07-02T08:02:56;28.50;51.00
23377;DHT22;14353;46.070;13.222;2023-07-02T08:05:22;28.50;51.00
23377;DHT22;14353;46.070;13.222;2023-07-02T08:07:49;28.50;51.00
23377;DHT22;14353;46.070;13.222;2023-07-02T08:10:14;28.50;50.90
23377;DHT22;14353;46.070;13.222;2023-07-02T08:12:40;28.50;50.90
23377;DHT22;14353;46.070;13.222;2023-07-02T08:15:06;28.50;50.90
23377;DHT22;14353;46.070;13.222;2023-07-02T08:17:32;28.50;50.80
23377;DHT22;14353;46.070;13.222;2023-07-02T08:19:58;28.50;50.80
23377;DHT22;14353;46.070;13.222;2023-07-02T08:22:24;28.50;50.80
23377;DHT22;14353;46.070;13.222;2023-07-02T08:24:49;28.60;50.80
23377;DHT22;14353;46.070;13.222;2023-07-02T08:27:16;28.50;50.80
23377;DHT22;14353;46.070;13.222;2023-07-02T08:29:46;28.50;50.70
23377;DHT22;14353;46.070;13.222;2023-07-02T08:32:12;28.60;50.70
23377;DHT22;14353;46.070;13.222;2023-07-02T08:34:37;28.50;50.70
23377;DHT22;14353;46.070;13.222;2023-07-02T08:37:03;28.60;50.70
23377;DHT22;14353;46.070;13.222;2023-07-02T08:39:29;28.60;50.70
23377;DHT22;14353;46.070;13.222;2023-07-02T08:41:55;28.60;50.60
23377;DHT22;14353;46.070;13.222;2023-07-02T08:44:21;28.60;50.60
23377;DHT22;14353;46.070;13.222;2023-07-02T08:46:49;28.60;50.60
23377;DHT22;14353;46.070;13.222;2023-07-02T08:49:17;28.60;50.50
23377;DHT22;14353;46.070;13.222;2023-07-02T08:51:45;28.60;50.50
23377;DHT22;14353;46.070;13.222;2023-07-02T08:54:10;28.60;50.40
23377;DHT22;14353;46.070;13.222;2023-07-02T08:56:36;28.60;50.50
23377;DHT22;14353;46.070;13.222;2023-07-02T08:59:02;28.60;50.40
23377;DHT22;14353;46.070;13.222;2023-07-02T09:01:28;28.60;50.50
23377;DHT22;14353;46.070;13.222;2023-07-02T09:03:58;28.70;50.50
23377;DHT22;14353;46.070;13.222;2023-07-02T09:06:25;28.60;50.40
23377;DHT22;14353;46.070;13.222;2023-07-02T09:08:51;28.60;50.30
23377;DHT22;14353;46.070;13.222;2023-07-02T09:11:17;28.60;50.30
23377;DHT22;14353;46.070;13.222;2023-07-02T09:13:47;28.60;50.30
23377;DHT22;14353;46.070;13.222;2023-07-02T09:18:58;28.70;50.30
23377;DHT22;14353;46.070;13.222;2023-07-02T09:21:37;28.70;50.30
23377;DHT22;14353;46.070;13.222;2023-07-02T09:24:20;28.70;50.30
23377;DHT22;14353;46.070;13.222;2023-07-02T09:26:51;28.70;50.30
23377;DHT22;14353;46.070;13.222;2023-07-02T09:29:29;28.70;50.20
23377;DHT22;14353;46.070;13.222;2023-07-02T09:32:00;28.70;50.20
23377;DHT22;14353;46.070;13.222;2023-07-02T09:34:30;28.70;50.20
23377;DHT22;14353;46.070;13.222;2023-07-02T09:37:00;28.70;50.20
23377;DHT22;14353;46.070;13.222;2023-07-02T09:39:28;28.70;50.20
23377;DHT22;14353;46.070;13.222;2023-07-02T09:41:58;28.70;50.80
23377;DHT22;14353;46.070;13.222;2023-07-02T09:44:29;28.70;50.10
23377;DHT22;14353;46.070;13.222;2023-07-02T09:49:32;28.70;50.10
23377;DHT22;14353;46.070;13.222;2023-07-02T09:52:00;28.70;50.80
23377;DHT22;14353;46.070;13.222;2023-07-02T09:54:27;28.70;50.10
23377;DHT22;14353;46.070;13.222;2023-07-02T09:56:53;28.80;50.70
23377;DHT22;14353;46.070;13.222;2023-07-02T09:59:19;28.80;50.10
23377;DHT22;14353;46.070;13.222;2023-07-02T10:01:44;28.80;50.10
23377;DHT22;14353;46.070;13.222;2023-07-02T10:04:14;28.80;50.00
23377;DHT22;14353;46.070;13.222;2023-07-02T10:06:54;28.80;50.00
23377;DHT22;14353;46.070;13.222;2023-07-02T10:09:21;28.80;50.00
23377;DHT22;14353;46.070;13.222;2023-07-02T10:11:59;28.80;50.00
23377;DHT22;14353;46.070;13.222;2023-07-02T10:14:25;28.80;50.00
23377;DHT22;14353;46.070;13.222;2023-07-02T10:16:51;28.80;50.00
23377;DHT22;14353;46.070;13.222;2023-07-02T10:19:17;28.80;50.00
23377;DHT22;14353;46.070;13.222;2023-07-02T10:21:43;28.80;50.00
23377;DHT22;14353;46.070;13.222;2023-07-02T10:24:13;28.90;50.00
23377;DHT22;14353;46.070;13.222;2023-07-02T10:26:51;28.80;49.90
23377;DHT22;14353;46.070;13.222;2023-07-02T10:29:19;28.80;49.80
23377;DHT22;14353;46.070;13.222;2023-07-02T10:31:49;28.80;49.80
23377;DHT22;14353;46.070;13.222;2023-07-02T10:34:16;28.90;49.90
23377;DHT22;14353;46.070;13.222;2023-07-02T10:36:41;28.90;49.80
23377;DHT22;14353;46.070;13.222;2023-07-02T10:39:07;28.90;49.80
23377;DHT22;14353;46.070;13.222;2023-07-02T10:41:34;28.90;49.80
23377;DHT22;14353;46.070;13.222;2023-07-02T10:44:10;28.90;49.80
23377;DHT22;14353;46.070;13.222;2023-07-02T10:46:49;28.90;49.70
23377;DHT22;14353;46.070;13.222;2023-07-02T10:49:17;28.90;49.70
23377;DHT22;14353;46.070;13.222;2023-07-02T10:51:43;29.00;49.70
23377;DHT22;14353;46.070;13.222;2023-07-02T10:54:09;29.00;49.60
23377;DHT22;14353;46.070;13.222;2023-07-02T10:56:35;29.00;49.60
23377;DHT22;14353;46.070;13.222;2023-07-02T10:59:01;29.00;49.50
23377;DHT22;14353;46.070;13.222;2023-07-02T11:01:27;29.00;49.50
23377;DHT22;14353;46.070;13.222;2023-07-02T11:06:24;29.10;49.40
23377;DHT22;14353;46.070;13.222;2023-07-02T11:08:50;29.20;49.30
23377;DHT22;14353;46.070;13.222;2023-07-02T11:11:15;29.20;49.20
23377;DHT22;14353;46.070;13.222;2023-07-02T11:13:48;29.20;49.10
23377;DHT22;14353;46.070;13.222;2023-07-02T11:16:25;29.30;49.10
23377;DHT22;14353;46.070;13.222;2023-07-02T11:19:06;29.30;49.00
23377;DHT22;14353;46.070;13.222;2023-07-02T11:21:36;29.30;48.90
23377;DHT22;14353;46.070;13.222;2023-07-02T11:24:07;29.40;48.90
23377;DHT22;14353;46.070;13.222;2023-07-02T11:26:40;29.40;48.80
23377;DHT22;14353;46.070;13.222;2023-07-02T11:29:12;29.40;48.80
23377;DHT22;14353;46.070;13.222;2023-07-02T11:31:43;29.40;48.80
23377;DHT22;14353;46.070;13.222;2023-07-02T11:34:16;29.40;48.80
23377;DHT22;14353;46.070;13.222;2023-07-02T11:36:42;29.40;48.70
23377;DHT22;14353;46.070;13.222;2023-07-02T11:39:08;29.40;48.70
23377;DHT22;14353;46.070;13.222;2023-07-02T11:41:41;29.40;48.80
23377;DHT22;14353;46.070;13.222;2023-07-02T11:44:07;29.40;48.80
23377;DHT22;14353;46.070;13.222;2023-07-02T11:46:33;29.40;48.70
23377;DHT22;14353;46.070;13.222;2023-07-02T11:49:03;29.40;48.70
23377;DHT22;14353;46.070;13.222;2023-07-02T11:51:39;29.40;48.70
23377;DHT22;14353;46.070;13.222;2023-07-02T11:54:05;29.50;48.70
23377;DHT22;14353;46.070;13.222;2023-07-02T11:56:32;29.50;48.70
23377;DHT22;14353;46.070;13.222;2023-07-02T11:58:57;29.50;48.70
23377;DHT22;14353;46.070;13.222;2023-07-02T12:01:23;29.50;48.60
23377;DHT22;14353;46.070;13.222;2023-07-02T12:03:49;29.50;48.50
23377;DHT22;14353;46.070;13.222;2023-07-02T12:06:15;29.60;48.50
23377;DHT22;14353;46.070;13.222;2023-07-02T12:08:40;29.60;48.50
23377;DHT22;14353;46.070;13.222;2023-07-02T12:11:07;29.60;48.50
23377;DHT22;14353;46.070;13.222;2023-07-02T12:13:32;29.60;48.30
23377;DHT22;14353;46.070;13.222;2023-07-02T12:15:58;29.70;48.30
23377;DHT22;14353;46.070;13.222;2023-07-02T12:18:24;29.70;48.30
23377;DHT22;14353;46.070;13.222;2023-07-02T12:20:49;29.70;48.30
23377;DHT22;14353;46.070;13.222;2023-07-02T12:23:15;29.70;48.20
23377;DHT22;14353;46.070;13.222;2023-07-02T12:25:41;29.70;48.20
23377;DHT22;14353;46.070;13.222;2023-07-02T12:28:06;29.70;48.20
23377;DHT22;14353;46.070;13.222;2023-07-02T12:30:32;29.80;48.10
23377;DHT22;14353;46.070;13.222;2023-07-02T12:32:58;29.80;48.00
23377;DHT22;14353;46.070;13.222;2023-07-02T12:35:24;29.80;48.00
23377;DHT22;14353;46.070;13.222;2023-07-02T12:37:51;29.80;47.90
23377;DHT22;14353;46.070;13.222;2023-07-02T12:40:18;29.80;47.90
23377;DHT22;14353;46.070;13.222;2023-07-02T12:42:45;29.80;47.90
23377;DHT22;14353;46.070;13.222;2023-07-02T12:45:12;29.80;47.90
23377;DHT22;14353;46.070;13.222;2023-07-02T12:47:39;29.80;47.90
23377;DHT22;14353;46.070;13.222;2023-07-02T12:50:07;29.80;47.90
23377;DHT22;14353;46.070;13.222;2023-07-02T12:52:33;29.80;47.90
23377;DHT22;14353;46.070;13.222;2023-07-02T12:54:59;29.80;48.00
23377;DHT22;14353;46.070;13.222;2023-07-02T12:57:24;29.80;47.90
23377;DHT22;14353;46.070;13.222;2023-07-02T12:59:55;29.80;48.00
23377;DHT22;14353;46.070;13.222;2023-07-02T13:02:21;29.80;48.00
23377;DHT22;14353;46.070;13.222;2023-07-02T13:04:48;29.80;48.10
23377;DHT22;14353;46.070;13.222;2023-07-02T13:07:14;29.80;48.10
23377;DHT22;14353;46.070;13.222;2023-07-02T13:09:40;29.80;48.10
23377;DHT22;14353;46.070;13.222;2023-07-02T13:12:06;29.80;48.00
23377;DHT22;14353;46.070;13.222;2023-07-02T13:14:31;29.80;48.00
23377;DHT22;14353;46.070;13.222;2023-07-02T13:16:58;29.80;48.00
23377;DHT22;14353;46.070;13.222;2023-07-02T13:19:24;29.80;48.00
23377;DHT22;14353;46.070;13.222;2023-07-02T13:21:50;29.80;48.00
23377;DHT22;14353;46.070;13.222;2023-07-02T13:24:16;29.80;47.90
23377;DHT22;14353;46.070;13.222;2023-07-02T13:26:42;29.80;47.90
23377;DHT22;14353;46.070;13.222;2023-07-02T13:29:07;29.90;48.00
23377;DHT22;14353;46.070;13.222;2023-07-02T13:31:33;29.80;48.00
23377;DHT22;14353;46.070;13.222;2023-07-02T13:33:59;29.90;48.00
23377;DHT22;14353;46.070;13.222;2023-07-02T13:36:25;29.90;48.00
23377;DHT22;14353;46.070;13.222;2023-07-02T13:38:50;29.90;48.00
23377;DHT22;14353;46.070;13.222;2023-07-02T13:41:16;29.90;47.90
23377;DHT22;14353;46.070;13.222;2023-07-02T13:43:42;29.90;47.90
23377;DHT22;14353;46.070;13.222;2023-07-02T13:46:08;30.00;48.00
23377;DHT22;14353;46.070;13.222;2023-07-02T13:48:33;29.90;47.90
23377;DHT22;14353;46.070;13.222;2023-07-02T13:51:00;30.00;47.90
23377;DHT22;14353;46.070;13.222;2023-07-02T13:53:26;30.00;47.90
23377;DHT22;14353;46.070;13.222;2023-07-02T13:55:52;30.00;47.90
23377;DHT22;14353;46.070;13.222;2023-07-02T13:58:17;30.00;47.90
23377;DHT22;14353;46.070;13.222;2023-07-02T14:00:43;30.00;47.80
23377;DHT22;14353;46.070;13.222;2023-07-02T14:03:09;30.00;48.50
23377;DHT22;14353;46.070;13.222;2023-07-02T14:05:35;30.00;47.90
23377;DHT22;14353;46.070;13.222;2023-07-02T14:08:00;30.00;47.90
23377;DHT22;14353;46.070;13.222;2023-07-02T14:10:26;30.00;47.90
23377;DHT22;14353;46.070;13.222;2023-07-02T14:12:54;30.00;47.90
23377;DHT22;14353;46.070;13.222;2023-07-02T14:15:19;30.10;47.90
23377;DHT22;14353;46.070;13.222;2023-07-02T14:17:46;30.10;47.80
23377;DHT22;14353;46.070;13.222;2023-07-02T14:20:12;30.10;47.80
23377;DHT22;14353;46.070;13.222;2023-07-02T14:22:37;30.10;47.80
23377;DHT22;14353;46.070;13.222;2023-07-02T14:25:03;30.10;47.80
23377;DHT22;14353;46.070;13.222;2023-07-02T14:27:29;30.10;47.80
23377;DHT22;14353;46.070;13.222;2023-07-02T14:29:55;30.10;47.70
23377;DHT22;14353;46.070;13.222;2023-07-02T14:32:21;30.10;47.70
23377;DHT22;14353;46.070;13.222;2023-07-02T14:34:47;30.10;47.70
23377;DHT22;14353;46.070;13.222;2023-07-02T14:37:13;30.10;47.70
23377;DHT22;14353;46.070;13.222;2023-07-02T14:39:38;30.20;47.70
23377;DHT22;14353;46.070;13.222;2023-07-02T14:42:04;30.20;47.60
23377;DHT22;14353;46.070;13.222;2023-07-02T14:44:32;30.20;47.60
23377;DHT22;14353;46.070;13.222;2023-07-02T14:46:58;30.20;47.60
23377;DHT22;14353;46.070;13.222;2023-07-02T14:49:23;30.20;47.70
23377;DHT22;14353;46.070;13.222;2023-07-02T14:51:49;30.20;47.70
23377;DHT22;14353;46.070;13.222;2023-07-02T14:54:15;30.10;47.70
23377;DHT22;14353;46.070;13.222;2023-07-02T14:56:41;30.20;47.70
23377;DHT22;14353;46.070;13.222;2023-07-02T14:59:06;30.20;47.70
23377;DHT22;14353;46.070;13.222;2023-07-02T15:01:33;30.20;47.70
23377;DHT22;14353;46.070;13.222;2023-07-02T15:03:59;30.20;47.60
23377;DHT22;14353;46.070;13.222;2023-07-02T15:06:25;30.20;47.60
23377;DHT22;14353;46.070;13.222;2023-07-02T15:08:50;30.20;47.50
23377;DHT22;14353;46.070;13.222;2023-07-02T15:11:18;30.30;47.60
23377;DHT22;14353;46.070;13.222;2023-07-02T15:13:44;30.30;48.20
23377;DHT22;14353;46.070;13.222;2023-07-02T15:16:11;30.30;47.50
23377;DHT22;14353;46.070;13.222;2023-07-02T15:18:37;30.30;47.50